Time;durP1;ratioP1;P1;durP2;ratioP2;P2;SDS_P1;SDS_P2;PMS_P1;PMS_P2;Temp;Humidity;BMP_temperature;BMP_pressure;BME280_temperature;BME280_humidity;BME280_pressure;Samples;Min_cycle;Max_cycle;Signal;HPM_P1;HPM_P2
2022/03/31 00:00:48;;;;;;;4.15;1.95;;;1.00;81.60;;;;;;4945238;28;20150;-69
2022/03/31 00:03:18;;;;;;;5.75;1.85;;;0.90;81.60;;;;;;4963570;28;20062;-69
2022/03/31 00:05:50;;;;;;;8.45;2.35;;;0.90;81.80;;;;;;4947111;29;20405;-69
2022/03/31 00:08:20;;;;;;;8.65;2.10;;;0.80;81.90;;;;;;4947875;29;20102;-69
2022/03/31 00:10:50;;;;;;;8.52;2.17;;;0.80;82.10;;;;;;4946614;29;20054;-69
2022/03/31 00:13:20;;;;;;;9.18;2.40;;;0.70;82.20;;;;;;4946586;29;20054;-69
2022/03/31 00:15:49;;;;;;;7.55;2.03;;;0.70;82.30;;;;;;4949556;29;20043;-68
2022/03/31 00:18:17;;;;;;;5.72;2.20;;;0.60;82.40;;;;;;4949042;29;20051;-69
2022/03/31 00:20:45;;;;;;;3.53;2.00;;;0.60;82.50;;;;;;4948118;29;20055;-69
2022/03/31 00:23:13;;;;;;;4.82;2.30;;;0.50;82.60;;;;;;4942358;29;20444;-69
2022/03/31 00:25:42;;;;;;;7.10;2.00;;;0.50;82.70;;;;;;4949683;29;20043;-69
2022/03/31 00:28:09;;;;;;;4.15;1.70;;;0.50;82.70;;;;;;4948567;29;20054;-69
2022/03/31 00:30:38;;;;;;;5.60;2.00;;;0.50;82.80;;;;;;4945015;28;20047;-69
2022/03/31 00:33:08;;;;;;;7.20;1.83;;;0.40;82.90;;;;;;4944723;29;20055;-69
2022/03/31 00:35:36;;;;;;;10.48;1.92;;;0.40;83.00;;;;;;4951015;29;20078;-69
2022/03/31 00:38:04;;;;;;;3.50;1.50;;;0.40;83.20;;;;;;4945800;29;20035;-68
2022/03/31 00:40:32;;;;;;;8.13;1.90;;;0.40;83.20;;;;;;4949726;29;20062;-68
2022/03/31 00:43:00;;;;;;;9.82;1.80;;;0.40;83.30;;;;;;4950452;29;20059;-69
2022/03/31 00:45:34;;;;;;;7.55;1.98;;;0.30;83.30;;;;;;4938213;28;20056;-69
2022/03/31 00:48:02;;;;;;;13.88;2.20;;;0.30;83.30;;;;;;4963775;28;20050;-69
2022/03/31 00:50:33;;;;;;;5.18;1.77;;;0.30;83.50;;;;;;4943386;29;20046;-69
2022/03/31 00:53:01;;;;;;;3.60;1.75;;;0.30;83.60;;;;;;4946950;29;20039;-69
2022/03/31 00:55:48;;;;;;;2.58;1.50;;;0.30;83.70;;;;;;4949005;29;20413;-69
2022/03/31 00:58:18;;;;;;;3.20;1.58;;;0.20;83.60;;;;;;4947448;29;20055;-69
2022/03/31 01:00:45;;;;;;;10.80;1.98;;;0.20;83.60;;;;;;4941132;29;20402;-69
2022/03/31 01:03:13;;;;;;;8.18;1.92;;;0.20;83.60;;;;;;4962745;28;20052;-69
2022/03/31 01:05:41;;;;;;;7.38;2.33;;;0.10;83.60;;;;;;4947309;28;20043;-69
2022/03/31 01:08:10;;;;;;;5.70;1.80;;;0.00;83.80;;;;;;4946779;29;20055;-69
2022/03/31 01:10:38;;;;;;;3.45;1.65;;;0.00;83.80;;;;;;4948924;29;20610;-69
2022/03/31 01:13:07;;;;;;;4.20;1.67;;;0.00;84.00;;;;;;4946056;29;20047;-69
2022/03/31 01:15:35;;;;;;;5.13;1.73;;;0.00;84.00;;;;;;4946947;29;20120;-69
2022/03/31 01:18:03;;;;;;;3.78;1.52;;;0.00;84.10;;;;;;4944521;29;20054;-69
2022/03/31 01:20:33;;;;;;;4.43;1.85;;;-0.10;84.20;;;;;;4946688;28;20409;-69
2022/03/31 01:23:01;;;;;;;5.50;1.63;;;-0.10;84.30;;;;;;4945529;29;20039;-70
2022/03/31 01:25:28;;;;;;;2.58;1.58;;;-0.10;84.50;;;;;;4946918;29;20050;-69
2022/03/31 01:27:57;;;;;;;5.32;1.55;;;-0.10;84.60;;;;;;4944875;29;20044;-69
2022/03/31 01:30:25;;;;;;;3.25;1.50;;;-0.20;84.70;;;;;;4945300;29;20039;-69
2022/03/31 01:32:52;;;;;;;5.70;1.45;;;-0.20;84.90;;;;;;4945888;29;20055;-69
2022/03/31 01:35:20;;;;;;;6.15;1.80;;;-0.20;85.00;;;;;;4946689;29;20055;-69
2022/03/31 01:37:48;;;;;;;2.60;1.60;;;-0.20;85.00;;;;;;4948056;29;20051;-69
2022/03/31 01:40:16;;;;;;;4.55;1.48;;;-0.20;85.10;;;;;;4949261;29;20074;-69
2022/03/31 01:42:44;;;;;;;3.60;1.52;;;-0.20;85.10;;;;;;4963303;28;20039;-69
2022/03/31 01:45:15;;;;;;;4.20;1.55;;;-0.30;85.10;;;;;;4947739;29;20181;-69
2022/03/31 01:47:44;;;;;;;8.48;1.65;;;-0.30;85.20;;;;;;4950799;29;20048;-68
2022/03/31 01:50:13;;;;;;;3.40;1.40;;;-0.40;85.30;;;;;;4964584;28;20401;-69
2022/03/31 01:52:41;;;;;;;9.02;1.58;;;-0.40;85.40;;;;;;4950531;29;20063;-69
2022/03/31 01:55:10;;;;;;;4.07;1.40;;;-0.40;85.50;;;;;;4966490;28;20046;-69
2022/03/31 01:57:38;;;;;;;5.47;1.60;;;-0.50;85.50;;;;;;4952615;28;20063;-68
2022/03/31 02:00:08;;;;;;;7.25;1.58;;;-0.50;85.60;;;;;;4963867;28;20055;-68
2022/03/31 02:02:43;;;;;;;7.28;1.90;;;-0.50;85.70;;;;;;4951694;28;20059;-69
2022/03/31 02:05:11;;;;;;;6.13;2.10;;;-0.60;85.60;;;;;;4952228;29;20051;-68
2022/03/31 02:07:39;;;;;;;4.97;1.70;;;-0.60;85.70;;;;;;4950711;28;20059;-70
2022/03/31 02:10:11;;;;;;;5.78;2.38;;;-0.60;85.80;;;;;;4950456;29;20048;-68
2022/03/31 02:12:41;;;;;;;4.47;1.55;;;-0.60;85.90;;;;;;4951628;28;20054;-69
2022/03/31 02:15:12;;;;;;;6.05;1.67;;;-0.70;85.90;;;;;;4951715;29;20058;-69
2022/03/31 02:17:40;;;;;;;5.63;1.77;;;-0.70;86.20;;;;;;4950012;29;20051;-69
2022/03/31 02:20:08;;;;;;;7.30;1.67;;;-0.70;86.30;;;;;;4944768;29;20062;-69
2022/03/31 02:22:36;;;;;;;5.75;2.10;;;-0.70;86.30;;;;;;4948508;29;20046;-68
2022/03/31 02:25:04;;;;;;;4.30;1.98;;;-0.70;86.40;;;;;;4951749;29;20050;-69
2022/03/31 02:27:31;;;;;;;3.15;1.85;;;-0.80;86.40;;;;;;4949727;28;20489;-68
2022/03/31 02:29:59;;;;;;;5.43;1.88;;;-0.80;86.40;;;;;;4950604;28;20066;-68
2022/03/31 02:32:27;;;;;;;2.22;1.77;;;-0.80;86.60;;;;;;4966115;28;20047;-68
2022/03/31 02:34:55;;;;;;;5.93;2.17;;;-0.80;86.60;;;;;;4945154;29;20047;-68
2022/03/31 02:37:23;;;;;;;4.88;2.17;;;-0.70;86.60;;;;;;4949545;28;20430;-68
2022/03/31 02:39:51;;;;;;;3.35;1.73;;;-0.80;86.70;;;;;;4949296;29;20047;-68
2022/03/31 02:42:18;;;;;;;3.72;1.88;;;-0.80;86.80;;;;;;4950330;29;20055;-68
2022/03/31 02:44:46;;;;;;;4.57;1.73;;;-0.70;86.80;;;;;;4951407;28;20062;-68
2022/03/31 02:47:14;;;;;;;2.20;1.40;;;-0.80;86.80;;;;;;4947366;28;20035;-68
2022/03/31 02:49:42;;;;;;;8.57;2.22;;;-0.80;86.80;;;;;;4951619;29;20066;-68
2022/03/31 02:52:10;;;;;;;8.02;2.33;;;-0.80;86.90;;;;;;4944893;29;20405;-68
2022/03/31 02:57:24;;;;;;;7.00;2.10;;;-0.90;87.00;;;;;;4948687;29;20055;-68
2022/03/31 02:59:52;;;;;;;5.82;2.35;;;-0.90;87.00;;;;;;4948255;29;20047;-68
2022/03/31 03:02:19;;;;;;;8.70;2.42;;;-0.90;87.00;;;;;;4950083;29;20047;-68
2022/03/31 03:04:47;;;;;;;4.28;2.25;;;-1.00;87.10;;;;;;4950611;29;20059;-68
2022/03/31 03:07:15;;;;;;;6.55;2.63;;;-1.00;87.10;;;;;;4948277;29;20039;-68
2022/03/31 03:09:42;;;;;;;7.07;2.55;;;-1.10;87.10;;;;;;4964422;28;20055;-68
2022/03/31 03:12:10;;;;;;;5.72;2.47;;;-1.10;87.20;;;;;;4946101;29;20058;-68
2022/03/31 03:14:38;;;;;;;6.18;3.00;;;-1.10;87.20;;;;;;4950157;29;20059;-68
2022/03/31 03:17:05;;;;;;;7.13;2.38;;;-1.20;87.20;;;;;;4946515;29;20047;-68
2022/03/31 03:19:33;;;;;;;4.82;3.05;;;-1.20;87.30;;;;;;4944259;29;20683;-68
2022/03/31 03:22:01;;;;;;;5.55;2.47;;;-1.20;87.40;;;;;;4944097;29;20048;-68
2022/03/31 03:24:28;;;;;;;5.03;2.50;;;-1.20;87.50;;;;;;4961637;28;20054;-69
2022/03/31 03:26:56;;;;;;;10.48;3.13;;;-1.20;87.60;;;;;;4946298;29;20050;-68
2022/03/31 03:29:24;;;;;;;9.27;2.80;;;-1.20;87.60;;;;;;4940400;29;20256;-68
2022/03/31 03:31:52;;;;;;;10.55;3.03;;;-1.20;87.90;;;;;;4943932;29;20052;-68
2022/03/31 03:34:19;;;;;;;6.07;2.70;;;-1.20;87.80;;;;;;4945731;29;20062;-69
2022/03/31 03:36:47;;;;;;;12.18;2.88;;;-1.20;87.90;;;;;;4942425;29;20043;-69
2022/03/31 03:39:15;;;;;;;8.45;2.85;;;-1.20;87.80;;;;;;4947295;29;20047;-68
2022/03/31 03:41:43;;;;;;;4.53;2.75;;;-1.20;87.80;;;;;;4948101;28;20055;-68
2022/03/31 03:44:10;;;;;;;5.43;2.38;;;-1.20;87.90;;;;;;4946621;29;20036;-68
2022/03/31 03:46:38;;;;;;;4.57;2.67;;;-1.20;87.80;;;;;;4945619;29;20047;-68
2022/03/31 03:49:05;;;;;;;4.55;2.33;;;-1.20;88.00;;;;;;4946743;29;20056;-69
2022/03/31 03:51:33;;;;;;;8.18;2.30;;;-1.20;88.20;;;;;;4948393;29;20043;-68
2022/03/31 03:54:03;;;;;;;3.25;2.20;;;-1.20;88.20;;;;;;4906728;29;1170922;-68
2022/03/31 03:56:30;;;;;;;8.50;2.60;;;-1.20;88.30;;;;;;4949103;28;20103;-68
2022/03/31 03:58:58;;;;;;;4.75;1.95;;;-1.10;88.40;;;;;;4963889;28;20054;-68
2022/03/31 04:01:26;;;;;;;4.53;2.85;;;-1.10;88.40;;;;;;4949347;29;20050;-68
2022/03/31 04:03:53;;;;;;;4.70;2.72;;;-1.00;88.40;;;;;;4933656;29;20047;-68
2022/03/31 04:06:21;;;;;;;5.38;2.63;;;-1.10;88.30;;;;;;4946861;28;20043;-68
2022/03/31 04:08:48;;;;;;;3.65;2.45;;;-1.10;88.30;;;;;;4948031;28;20059;-68
2022/03/31 04:11:16;;;;;;;4.88;2.35;;;-1.10;88.30;;;;;;4947873;29;20050;-68
2022/03/31 04:13:46;;;;;;;5.68;2.45;;;-1.10;88.40;;;;;;4947333;29;20051;-68
2022/03/31 04:16:13;;;;;;;3.22;2.28;;;-1.10;88.50;;;;;;4945720;28;20047;-68
2022/03/31 04:18:41;;;;;;;6.93;2.47;;;-1.10;88.60;;;;;;4947246;29;20042;-69
2022/03/31 04:21:10;;;;;;;2.55;2.03;;;-1.10;88.60;;;;;;4944855;29;20042;-68
2022/03/31 04:23:38;;;;;;;5.00;2.65;;;-1.10;88.60;;;;;;4932652;28;20413;-68
2022/03/31 04:26:05;;;;;;;5.00;2.42;;;-1.10;88.60;;;;;;4945062;29;20051;-71
2022/03/31 04:28:33;;;;;;;2.92;2.08;;;-1.20;88.60;;;;;;4963539;28;20440;-69
2022/03/31 04:31:01;;;;;;;6.07;2.33;;;-1.10;88.70;;;;;;4940555;29;20345;-69
2022/03/31 04:33:29;;;;;;;2.90;1.85;;;-1.10;88.80;;;;;;4946324;29;20636;-68
2022/03/31 04:35:57;;;;;;;3.97;2.00;;;-1.10;88.80;;;;;;4947773;29;20051;-68
2022/03/31 04:38:24;;;;;;;5.20;1.92;;;-1.10;88.80;;;;;;4961917;28;20056;-68
2022/03/31 04:40:52;;;;;;;2.95;2.00;;;-1.00;88.70;;;;;;4948419;29;20047;-68
2022/03/31 04:43:20;;;;;;;3.03;1.90;;;-1.00;88.60;;;;;;4948474;29;20371;-68
2022/03/31 04:45:47;;;;;;;4.03;2.00;;;-1.00;88.60;;;;;;4946564;29;20047;-68
2022/03/31 04:48:15;;;;;;;2.95;2.03;;;-1.10;88.50;;;;;;4947086;29;20051;-68
2022/03/31 04:50:43;;;;;;;4.82;1.83;;;-1.10;88.60;;;;;;4947722;29;20149;-69
2022/03/31 04:53:11;;;;;;;5.47;2.15;;;-1.10;88.70;;;;;;4945294;29;20047;-68
2022/03/31 04:55:39;;;;;;;3.20;2.13;;;-1.10;88.70;;;;;;4947215;29;20054;-68
2022/03/31 04:58:07;;;;;;;2.90;2.10;;;-1.10;88.70;;;;;;4930445;29;20055;-68
2022/03/31 05:00:35;;;;;;;5.65;2.50;;;-1.10;88.80;;;;;;4942764;29;20058;-68
2022/03/31 05:03:03;;;;;;;3.97;1.95;;;-1.20;88.70;;;;;;4948944;29;20054;-68
2022/03/31 05:05:32;;;;;;;4.68;2.00;;;-1.20;88.90;;;;;;4947832;28;20059;-68
2022/03/31 05:08:00;;;;;;;2.47;1.85;;;-1.20;89.00;;;;;;4942043;29;20387;-68
2022/03/31 05:10:27;;;;;;;4.32;2.17;;;-1.20;89.00;;;;;;4943509;29;20051;-68
2022/03/31 05:12:55;;;;;;;2.47;1.80;;;-1.20;88.90;;;;;;4946061;28;20486;-68
2022/03/31 05:15:22;;;;;;;1.63;1.50;;;-1.20;88.90;;;;;;4943211;29;20557;-68
2022/03/31 05:17:50;;;;;;;3.60;1.65;;;-1.20;89.00;;;;;;4947692;28;20059;-69
2022/03/31 05:20:18;;;;;;;1.85;1.45;;;-1.20;89.20;;;;;;4947287;29;20044;-69
2022/03/31 05:22:45;;;;;;;2.95;1.90;;;-1.20;89.20;;;;;;4948116;29;20497;-68
2022/03/31 05:25:13;;;;;;;1.67;1.58;;;-1.10;89.30;;;;;;4952610;29;20396;-68
2022/03/31 05:27:43;;;;;;;5.28;2.20;;;-1.10;89.10;;;;;;4952274;29;20074;-68
2022/03/31 05:30:13;;;;;;;2.03;1.67;;;-1.10;89.10;;;;;;4948071;29;20047;-68
2022/03/31 05:32:41;;;;;;;4.65;2.17;;;-1.20;89.10;;;;;;4948731;29;20055;-68
2022/03/31 05:35:11;;;;;;;2.38;1.83;;;-1.20;89.30;;;;;;4951569;29;20497;-68
2022/03/31 05:37:39;;;;;;;3.05;1.88;;;-1.10;89.30;;;;;;4967326;28;20541;-68
2022/03/31 05:40:08;;;;;;;2.40;1.88;;;-1.00;89.30;;;;;;4951438;29;20043;-68
2022/03/31 05:42:37;;;;;;;3.83;1.70;;;-0.90;89.20;;;;;;4949831;29;20400;-68
2022/03/31 05:45:06;;;;;;;5.40;1.80;;;-0.90;89.20;;;;;;4947283;28;20048;-68
2022/03/31 05:47:33;;;;;;;3.58;1.50;;;-0.80;89.10;;;;;;4951113;29;20047;-68
2022/03/31 05:50:01;;;;;;;2.65;1.60;;;-0.80;88.90;;;;;;4961608;28;20416;-69
2022/03/31 05:52:33;;;;;;;3.65;1.50;;;-0.80;88.70;;;;;;4949666;29;20761;-69
2022/03/31 05:55:00;;;;;;;2.20;1.30;;;-0.80;88.70;;;;;;4946074;29;20051;-68
2022/03/31 05:57:28;;;;;;;3.85;1.65;;;-0.90;88.60;;;;;;4950587;28;20047;-69
2022/03/31 05:59:56;;;;;;;3.28;1.70;;;-0.90;88.70;;;;;;4950257;29;20047;-68
2022/03/31 06:02:23;;;;;;;3.60;1.45;;;-0.90;88.70;;;;;;4930888;29;20056;-68
2022/03/31 06:05:11;;;;;;;4.15;1.60;;;-1.00;88.80;;;;;;4950369;29;20054;-68
2022/03/31 06:07:39;;;;;;;2.88;1.65;;;-1.00;88.90;;;;;;4950294;29;20057;-68
2022/03/31 06:10:07;;;;;;;5.95;1.42;;;-1.00;88.90;;;;;;4951042;29;20487;-68
2022/03/31 06:12:35;;;;;;;5.20;1.50;;;-1.00;89.00;;;;;;4947980;29;20054;-68
2022/03/31 06:15:04;;;;;;;1.95;1.58;;;-1.00;89.00;;;;;;4947756;29;20058;-68
2022/03/31 06:17:34;;;;;;;4.80;1.50;;;-1.00;89.10;;;;;;4943855;29;20051;-68
2022/03/31 06:20:02;;;;;;;3.85;1.10;;;-1.00;89.00;;;;;;4944591;29;20640;-69
2022/03/31 06:22:29;;;;;;;2.05;1.75;;;-1.00;89.00;;;;;;4927028;29;20052;-68
2022/03/31 06:24:57;;;;;;;1.85;1.65;;;-0.90;89.00;;;;;;4947704;29;20043;-69
2022/03/31 06:27:25;;;;;;;3.70;1.83;;;-0.90;89.00;;;;;;4950385;29;20048;-68
2022/03/31 06:29:53;;;;;;;4.00;1.58;;;-0.90;89.00;;;;;;4948995;29;20497;-68
2022/03/31 06:32:21;;;;;;;3.05;1.85;;;-0.90;89.00;;;;;;4949097;29;20058;-68
2022/03/31 06:34:49;;;;;;;4.32;2.10;;;-0.90;89.10;;;;;;4948724;29;20051;-68
2022/03/31 06:37:17;;;;;;;2.97;2.22;;;-0.90;89.20;;;;;;4940677;29;20047;-68
2022/03/31 06:39:44;;;;;;;5.75;2.35;;;-0.80;89.10;;;;;;4947074;29;20055;-68
2022/03/31 06:42:12;;;;;;;4.30;1.98;;;-0.80;89.10;;;;;;4947939;29;20055;-68
2022/03/31 06:44:41;;;;;;;5.45;2.10;;;-0.70;89.10;;;;;;4946164;29;20044;-68
2022/03/31 06:47:08;;;;;;;3.40;1.85;;;-0.70;89.20;;;;;;4966363;28;20062;-68
2022/03/31 06:49:36;;;;;;;4.85;1.90;;;-0.70;89.30;;;;;;4946864;29;20054;-68
2022/03/31 06:52:04;;;;;;;5.57;1.90;;;-0.70;89.30;;;;;;4946291;28;20426;-68
2022/03/31 06:54:32;;;;;;;4.30;1.92;;;-0.60;89.30;;;;;;4938796;29;20103;-68
2022/03/31 06:56:59;;;;;;;2.10;1.88;;;-0.60;89.50;;;;;;4945839;29;20058;-68
2022/03/31 06:59:29;;;;;;;3.70;1.92;;;-0.50;89.40;;;;;;4944977;29;20051;-68
2022/03/31 07:01:57;;;;;;;6.10;1.67;;;-0.40;89.50;;;;;;4949012;29;20258;-68
2022/03/31 07:04:25;;;;;;;4.00;1.98;;;-0.30;89.50;;;;;;4949367;29;20272;-68
2022/03/31 07:06:52;;;;;;;2.72;1.70;;;-0.20;89.50;;;;;;4943058;29;20054;-68
2022/03/31 07:09:20;;;;;;;4.35;1.40;;;-0.10;89.50;;;;;;4952029;29;20043;-68
2022/03/31 07:11:48;;;;;;;10.00;3.05;;;-0.10;89.40;;;;;;4946427;29;20051;-70
2022/03/31 07:14:15;;;;;;;2.97;1.60;;;0.00;89.40;;;;;;4947761;28;20048;-69
2022/03/31 07:16:43;;;;;;;2.40;1.70;;;0.00;89.30;;;;;;4947922;29;20043;-68
2022/03/31 07:19:10;;;;;;;7.65;1.42;;;0.00;89.20;;;;;;4952178;29;20047;-68
2022/03/31 07:21:38;;;;;;;3.72;1.40;;;0.00;89.20;;;;;;4949538;29;20058;-68
2022/03/31 07:24:06;;;;;;;1.40;0.98;;;0.10;89.20;;;;;;4954536;29;20058;-69
2022/03/31 07:26:34;;;;;;;5.22;1.50;;;0.20;89.10;;;;;;4966327;28;20040;-68
2022/03/31 07:29:03;;;;;;;3.47;1.50;;;0.20;88.90;;;;;;4936953;29;20058;-68
2022/03/31 07:31:30;;;;;;;5.32;1.40;;;0.30;88.80;;;;;;4935914;29;20047;-68
2022/03/31 07:33:58;;;;;;;7.88;2.58;;;0.30;88.80;;;;;;4936111;29;20055;-68
2022/03/31 07:36:26;;;;;;;4.15;1.52;;;0.30;88.70;;;;;;4935984;29;20052;-68
2022/03/31 07:38:53;;;;;;;2.30;1.30;;;0.30;88.70;;;;;;4952788;29;20054;-68
2022/03/31 07:41:21;;;;;;;3.33;1.77;;;0.50;88.50;;;;;;4953181;28;20058;-68
2022/03/31 07:43:48;;;;;;;7.50;2.03;;;0.60;88.40;;;;;;4953953;29;20054;-68
2022/03/31 07:46:16;;;;;;;5.88;1.38;;;0.70;88.30;;;;;;4954505;28;20058;-68
2022/03/31 07:48:44;;;;;;;4.03;1.48;;;0.90;87.90;;;;;;4937948;29;20393;-68
2022/03/31 07:51:12;;;;;;;3.08;1.02;;;1.00;87.60;;;;;;4949139;29;20182;-69
2022/03/31 07:53:39;;;;;;;3.50;1.42;;;1.20;87.20;;;;;;4953581;29;20054;-68
2022/03/31 07:56:07;;;;;;;4.57;1.42;;;1.30;86.60;;;;;;4954663;29;20409;-68
2022/03/31 07:58:36;;;;;;;6.22;1.25;;;1.40;86.20;;;;;;4940136;29;20062;-68
2022/03/31 08:01:03;;;;;;;5.30;1.45;;;1.40;86.00;;;;;;4935540;29;20056;-68
2022/03/31 08:03:31;;;;;;;5.75;1.40;;;1.60;85.80;;;;;;4935547;29;20497;-69
2022/03/31 08:05:59;;;;;;;3.20;1.20;;;1.70;85.50;;;;;;4935308;29;20047;-69
2022/03/31 08:08:28;;;;;;;3.00;1.33;;;1.80;85.20;;;;;;4948283;29;20051;-69
2022/03/31 08:10:55;;;;;;;1.85;1.13;;;1.80;84.40;;;;;;4954504;29;20059;-69
2022/03/31 08:13:28;;;;;;;3.55;1.20;;;1.90;84.20;;;;;;4953995;28;20067;-68
2022/03/31 08:15:57;;;;;;;4.30;1.20;;;2.00;83.60;;;;;;4938170;28;20501;-68
2022/03/31 08:18:28;;;;;;;2.92;1.02;;;2.10;83.20;;;;;;4947995;29;20055;-69
2022/03/31 08:20:57;;;;;;;2.85;1.20;;;2.20;83.10;;;;;;4954419;29;20360;-69
2022/03/31 08:23:26;;;;;;;4.05;1.55;;;2.30;82.50;;;;;;4941559;29;20391;-69
2022/03/31 08:25:55;;;;;;;3.33;1.00;;;2.30;82.20;;;;;;4934927;29;20398;-69
2022/03/31 08:28:25;;;;;;;3.78;1.00;;;2.50;81.70;;;;;;4947794;29;20047;-69
2022/03/31 08:30:52;;;;;;;3.53;0.80;;;2.50;81.40;;;;;;4952951;29;20043;-70
2022/03/31 08:33:20;;;;;;;1.85;0.82;;;2.50;80.70;;;;;;4942563;29;20071;-69
2022/03/31 08:35:49;;;;;;;2.55;0.73;;;2.50;80.20;;;;;;4933985;29;20521;-69
2022/03/31 08:38:16;;;;;;;3.90;0.80;;;2.40;80.00;;;;;;4934890;29;20416;-69
2022/03/31 08:40:47;;;;;;;2.53;0.65;;;2.30;80.10;;;;;;4935468;29;20382;-69
2022/03/31 08:43:15;;;;;;;6.47;0.80;;;2.20;80.10;;;;;;4934651;29;20054;-69
2022/03/31 08:45:45;;;;;;;2.92;0.70;;;2.20;79.90;;;;;;4939180;29;20078;-69
2022/03/31 08:48:12;;;;;;;4.03;0.77;;;2.20;79.80;;;;;;4950806;29;20055;-69
2022/03/31 08:50:40;;;;;;;1.73;0.85;;;2.20;79.90;;;;;;4939938;29;20429;-69
2022/03/31 08:53:08;;;;;;;2.20;0.50;;;2.30;79.40;;;;;;4951332;28;20051;-69
2022/03/31 08:55:36;;;;;;;0.80;0.50;;;2.40;78.70;;;;;;4941218;29;20051;-69
2022/03/31 08:58:03;;;;;;;4.68;0.80;;;2.40;78.60;;;;;;4930933;29;20063;-69
2022/03/31 09:00:31;;;;;;;1.35;0.60;;;2.50;78.30;;;;;;4934425;29;20055;-69
2022/03/31 09:03:04;;;;;;;1.73;0.73;;;2.60;78.20;;;;;;4934913;29;20060;-70
2022/03/31 09:05:52;;;;;;;1.88;0.60;;;2.80;78.30;;;;;;4934816;29;20059;-69
2022/03/31 09:08:20;;;;;;;6.80;0.73;;;2.90;77.80;;;;;;4948793;29;20528;-69
2022/03/31 09:10:52;;;;;;;2.20;0.75;;;3.00;77.10;;;;;;4952212;29;20051;-69
2022/03/31 09:13:24;;;;;;;8.27;1.30;;;3.20;76.70;;;;;;4953881;29;20046;-69
2022/03/31 09:16:04;;;;;;;3.20;0.85;;;3.30;76.20;;;;;;4953948;29;20043;-69
2022/03/31 09:18:34;;;;;;;5.53;0.93;;;3.50;76.10;;;;;;4953867;29;20449;-69
2022/03/31 09:21:06;;;;;;;3.92;0.70;;;3.70;74.60;;;;;;4953628;29;20067;-69
2022/03/31 09:23:43;;;;;;;4.05;0.70;;;3.70;73.60;;;;;;4953787;29;20051;-69
2022/03/31 09:26:14;;;;;;;4.57;0.70;;;3.70;73.40;;;;;;4968595;28;20062;-69
2022/03/31 09:28:46;;;;;;;2.83;0.80;;;3.70;71.90;;;;;;4952720;29;20054;-69
2022/03/31 09:31:24;;;;;;;5.57;0.70;;;3.80;72.50;;;;;;4953765;29;20066;-69
2022/03/31 09:33:57;;;;;;;3.40;0.85;;;3.90;72.70;;;;;;4952158;29;20397;-69
2022/03/31 09:36:26;;;;;;;3.78;0.60;;;4.20;72.00;;;;;;4953809;29;20517;-69
2022/03/31 09:38:58;;;;;;;4.03;0.50;;;4.30;70.50;;;;;;4953554;29;20520;-69
2022/03/31 09:41:37;;;;;;;3.47;0.73;;;4.30;69.70;;;;;;4953589;29;20497;-68
2022/03/31 09:44:13;;;;;;;5.28;0.68;;;4.40;70.10;;;;;;4945732;29;20068;-69
2022/03/31 09:46:42;;;;;;;3.15;0.60;;;4.50;69.60;;;;;;4933381;29;20070;-68
2022/03/31 09:49:24;;;;;;;2.53;0.88;;;4.60;68.00;;;;;;4934348;29;20052;-69
2022/03/31 09:51:57;;;;;;;1.50;0.80;;;4.80;68.40;;;;;;4938445;29;20050;-69
2022/03/31 09:54:27;;;;;;;3.00;0.85;;;4.90;68.40;;;;;;4953409;29;20047;-69
2022/03/31 09:56:57;;;;;;;7.05;0.82;;;5.10;66.60;;;;;;4952297;29;20453;-72
2022/03/31 09:59:30;;;;;;;1.80;0.50;;;5.20;65.60;;;;;;4950902;28;20081;-69
2022/03/31 10:01:59;;;;;;;4.57;0.80;;;5.30;65.90;;;;;;4952980;29;20051;-69
2022/03/31 10:04:27;;;;;;;2.40;0.55;;;5.30;65.90;;;;;;4954845;28;20082;-69
2022/03/31 10:06:56;;;;;;;5.32;1.27;;;5.50;65.20;;;;;;4956753;29;20055;-69
2022/03/31 10:09:24;;;;;;;3.58;0.90;;;5.60;64.50;;;;;;4970299;28;20052;-70
2022/03/31 10:12:23;;;;;;;2.20;0.88;;;5.70;63.10;;;;;;4952554;28;20064;-69
2022/03/31 10:15:01;;;;;;;5.80;1.23;;;5.80;63.70;;;;;;4947614;29;20051;-69
2022/03/31 10:17:30;;;;;;;4.22;0.70;;;6.00;63.10;;;;;;4956801;29;20047;-69
2022/03/31 10:20:11;;;;;;;4.13;0.75;;;6.10;59.90;;;;;;4956542;29;20043;-69
2022/03/31 10:25:41;;;;;;;1.67;0.60;;;6.20;61.20;;;;;;4950421;29;20039;-69
2022/03/31 10:28:11;;;;;;;1.73;0.50;;;6.30;61.00;;;;;;4947456;29;20551;-69
2022/03/31 10:30:40;;;;;;;3.47;0.68;;;6.30;59.00;;;;;;4954691;29;20047;-69
2022/03/31 10:33:08;;;;;;;4.20;0.55;;;6.20;58.80;;;;;;4935446;29;20574;-69
2022/03/31 10:35:41;;;;;;;4.20;0.73;;;6.10;59.10;;;;;;4935570;29;20047;-70
2022/03/31 10:38:13;;;;;;;6.57;0.50;;;6.20;59.30;;;;;;4937147;29;20519;-70
2022/03/31 10:40:43;;;;;;;3.17;0.60;;;6.30;58.50;;;;;;4937075;29;20541;-69
2022/03/31 10:43:33;;;;;;;;;;;6.30;58.20;;;;;;4940545;29;20047;-69
2022/03/31 10:46:04;;;;;;;3.38;0.55;;;6.30;56.90;;;;;;4954790;29;19922;-70
2022/03/31 10:48:36;;;;;;;9.98;1.00;;;6.00;56.10;;;;;;4937742;29;20058;-69
2022/03/31 10:51:06;;;;;;;3.95;0.70;;;5.90;56.50;;;;;;4943137;29;20044;-69
2022/03/31 10:53:36;;;;;;;3.15;0.65;;;5.80;57.20;;;;;;4956195;29;20051;-69
2022/03/31 10:56:19;;;;;;;4.53;0.90;;;5.60;57.90;;;;;;4955985;29;20535;-69
2022/03/31 10:58:49;;;;;;;2.08;0.50;;;5.40;58.20;;;;;;4956098;29;20124;-69
2022/03/31 11:01:18;;;;;;;3.47;0.82;;;5.30;58.30;;;;;;4955910;28;20062;-69
2022/03/31 11:03:47;;;;;;;6.00;0.85;;;5.20;59.20;;;;;;4945935;29;20066;-69
2022/03/31 11:06:15;;;;;;;1.77;0.52;;;5.30;59.40;;;;;;4935864;29;20509;-68
2022/03/31 11:08:45;;;;;;;3.53;1.08;;;5.30;58.70;;;;;;4936721;29;20047;-69
2022/03/31 11:11:29;;;;;;;6.70;0.70;;;5.50;57.50;;;;;;4936609;29;20050;-69
2022/03/31 11:13:58;;;;;;;0.75;0.40;;;5.50;56.80;;;;;;4944145;29;20051;-79
2022/03/31 11:16:37;;;;;;;3.83;0.60;;;5.30;56.10;;;;;;4937433;29;20058;-69
2022/03/31 11:19:07;;;;;;;1.98;0.70;;;5.40;57.10;;;;;;4950825;29;20050;-68
2022/03/31 11:21:37;;;;;;;1.80;0.65;;;5.70;58.10;;;;;;4942679;28;20052;-69
2022/03/31 11:24:07;;;;;;;1.80;0.60;;;6.20;57.20;;;;;;4950981;29;20057;-69
2022/03/31 11:26:40;;;;;;;3.40;0.52;;;6.60;54.20;;;;;;4938551;29;20042;-69
2022/03/31 11:29:12;;;;;;;1.27;0.57;;;6.80;53.70;;;;;;4937959;29;20055;-68
2022/03/31 11:31:54;;;;;;;1.73;0.75;;;7.20;52.60;;;;;;4941642;29;20047;-68
2022/03/31 11:34:27;;;;;;;2.15;0.40;;;7.40;52.30;;;;;;4942755;29;20047;-69
2022/03/31 11:37:00;;;;;;;2.90;0.60;;;7.30;51.30;;;;;;4941986;29;20075;-69
2022/03/31 11:39:29;;;;;;;1.13;0.45;;;6.90;50.70;;;;;;4935749;29;20055;-69
2022/03/31 11:42:00;;;;;;;0.75;0.20;;;6.40;51.70;;;;;;4936050;29;20063;-69
2022/03/31 11:44:32;;;;;;;1.13;0.40;;;6.30;51.10;;;;;;4934930;29;20055;-69
2022/03/31 11:47:00;;;;;;;2.38;0.40;;;6.40;50.90;;;;;;4936024;29;20044;-68
2022/03/31 11:49:28;;;;;;;5.28;0.50;;;6.90;51.00;;;;;;4935986;29;20055;-69
2022/03/31 11:51:58;;;;;;;2.25;0.40;;;7.30;48.90;;;;;;4935721;29;20063;-69
2022/03/31 11:54:29;;;;;;;3.47;0.60;;;7.70;48.60;;;;;;4935789;29;20051;-69
2022/03/31 11:57:05;;;;;;;1.10;0.60;;;7.80;47.40;;;;;;4935803;29;20070;-68
2022/03/31 11:59:34;;;;;;;0.68;0.50;;;7.90;45.70;;;;;;4934700;29;20397;-69
2022/03/31 12:02:02;;;;;;;2.88;0.50;;;7.90;45.30;;;;;;4935541;29;20051;-68
2022/03/31 12:04:31;;;;;;;2.97;0.50;;;8.00;45.60;;;;;;4935633;29;20405;-68
2022/03/31 12:06:59;;;;;;;1.73;0.57;;;7.80;45.30;;;;;;4935471;29;20043;-69
2022/03/31 12:09:27;;;;;;;5.32;0.60;;;7.50;45.70;;;;;;4935590;29;20055;-68
2022/03/31 12:11:58;;;;;;;0.77;0.47;;;7.30;45.30;;;;;;4918423;29;20502;-68
2022/03/31 12:14:28;;;;;;;0.93;0.30;;;7.30;44.70;;;;;;4935524;29;20052;-68
2022/03/31 12:16:57;;;;;;;2.78;0.45;;;7.30;44.60;;;;;;4935506;29;20512;-68
2022/03/31 12:19:24;;;;;;;4.07;0.50;;;7.30;43.90;;;;;;4933650;29;20532;-68
2022/03/31 12:21:56;;;;;;;2.78;0.70;;;7.40;44.40;;;;;;4932060;29;20055;-68
2022/03/31 12:24:23;;;;;;;3.63;0.40;;;7.50;44.70;;;;;;4932950;29;20067;-68
2022/03/31 12:27:03;;;;;;;7.90;1.00;;;7.50;45.30;;;;;;4933238;29;20043;-68
2022/03/31 12:29:32;;;;;;;1.80;0.60;;;7.30;46.40;;;;;;4932682;29;20074;-67
2022/03/31 12:32:13;;;;;;;3.72;0.93;;;7.10;49.50;;;;;;4934046;29;20055;-68
2022/03/31 12:34:56;;;;;;;0.88;0.60;;;6.60;52.60;;;;;;4935004;29;20540;-68
2022/03/31 12:37:31;;;;;;;10.75;0.90;;;6.30;54.70;;;;;;4935187;29;20051;-68
2022/03/31 12:39:59;;;;;;;5.35;0.98;;;6.30;56.20;;;;;;4935048;29;20055;-68
2022/03/31 12:42:27;;;;;;;2.55;1.00;;;6.70;56.60;;;;;;4935379;29;20055;-68
2022/03/31 12:44:54;;;;;;;3.25;0.93;;;7.40;55.70;;;;;;4917954;29;20047;-68
2022/03/31 12:47:25;;;;;;;3.00;0.60;;;8.20;54.20;;;;;;4935260;29;20047;-68
2022/03/31 12:49:53;;;;;;;2.83;0.70;;;9.00;50.80;;;;;;4933992;29;20054;-69
2022/03/31 12:52:22;;;;;;;4.88;0.90;;;9.60;48.60;;;;;;4933873;29;20050;-68
2022/03/31 12:54:58;;;;;;;3.40;0.70;;;10.10;46.80;;;;;;4934956;29;20052;-68
2022/03/31 12:57:28;;;;;;;1.75;0.47;;;10.40;44.80;;;;;;4934191;29;20070;-68
2022/03/31 13:00:01;;;;;;;1.35;0.43;;;10.70;42.30;;;;;;4936163;29;20047;-68
2022/03/31 13:02:43;;;;;;;1.23;0.70;;;10.80;41.10;;;;;;4936565;29;20136;-68
2022/03/31 13:05:18;;;;;;;4.30;0.95;;;11.00;40.80;;;;;;4942286;29;20040;-68
2022/03/31 13:07:47;;;;;;;1.23;0.50;;;11.20;37.10;;;;;;4944715;29;20056;-68
2022/03/31 13:10:15;;;;;;;3.28;0.45;;;11.40;36.60;;;;;;4933449;29;20058;-68